Time;durP1;ratioP1;P1;durP2;ratioP2;P2;SDS_P1;SDS_P2;PMS_P1;PMS_P2;Temp;Humidity;BMP_temperature;BMP_pressure;BME280_temperature;BME280_humidity;BME280_pressure;Samples;Min_cycle;Max_cycle;Signal;HPM_P1;HPM_P2
2022/06/27 00:00:28;;;;;;;2.35;1.90;;;16.10;1.40;;;17.61;100.00;94936.92;646419;212;31585;-76
2022/06/27 00:03:09;;;;;;;2.33;2.12;;;16.10;1.40;;;17.58;100.00;94933.41;647094;216;31603;-76
2022/06/27 00:05:51;;;;;;;2.78;2.20;;;16.00;1.40;;;17.62;100.00;94929.15;647387;216;31542;-76
2022/06/27 00:08:34;;;;;;;2.20;1.50;;;16.00;1.40;;;17.57;100.00;94927.40;646588;216;31646;-76
2022/06/27 00:11:14;;;;;;;2.53;1.67;;;16.00;1.40;;;17.54;100.00;94927.00;647789;216;31550;-76
2022/06/27 00:13:59;;;;;;;2.50;2.05;;;16.00;1.40;;;17.59;100.00;94916.41;646563;216;31800;-76
2022/06/27 00:16:41;;;;;;;2.70;1.80;;;16.10;1.40;;;17.54;100.00;94908.74;647123;213;31551;-76
2022/06/27 00:19:28;;;;;;;2.20;1.35;;;16.00;1.40;;;17.51;100.00;94906.61;648277;212;31545;-76
2022/06/27 00:22:08;;;;;;;3.00;2.08;;;16.00;1.40;;;17.68;100.00;94918.66;619596;222;32411;-76
2022/06/27 00:24:50;;;;;;;2.40;2.20;;;16.30;1.40;;;17.81;100.00;94925.26;647085;216;32716;-76
2022/06/27 00:27:32;;;;;;;2.05;1.50;;;16.50;1.40;;;17.94;100.00;94927.23;647925;216;31740;-76
2022/06/27 00:30:14;;;;;;;2.50;1.70;;;16.70;1.40;;;18.00;100.00;94932.27;647499;212;42192;-76
2022/06/27 00:32:56;;;;;;;3.60;2.78;;;16.60;1.40;;;17.96;100.00;94941.75;647800;216;31937;-75
2022/06/27 00:35:53;;;;;;;2.70;2.20;;;16.50;1.40;;;17.82;100.00;94946.31;647301;216;31646;-76
2022/06/27 00:38:41;;;;;;;2.30;2.00;;;16.30;1.40;;;17.85;100.00;94941.92;646562;216;31532;-76
2022/06/27 00:41:23;;;;;;;2.80;1.80;;;16.20;1.40;;;17.81;100.00;94956.19;647084;212;31523;-76
2022/06/27 00:44:05;;;;;;;2.72;2.50;;;16.20;1.40;;;17.69;100.00;94952.45;647696;212;31794;-76
2022/06/27 00:46:49;;;;;;;2.45;2.05;;;16.30;1.40;;;17.80;100.00;94956.94;646083;216;31609;-76
2022/06/27 00:49:31;;;;;;;2.30;1.75;;;16.20;1.40;;;17.77;100.00;94970.48;647033;213;31524;-76
2022/06/27 00:52:13;;;;;;;2.80;2.30;;;16.20;1.40;;;17.79;100.00;94968.09;647152;216;31513;-77
2022/06/27 00:55:00;;;;;;;3.00;2.10;;;16.30;1.40;;;17.64;100.00;94967.72;646570;216;33130;-76
2022/06/27 00:57:48;;;;;;;2.40;2.20;;;16.10;1.40;;;17.61;100.00;94969.83;646350;216;31754;-76
2022/06/27 01:03:04;;;;;;;2.55;2.35;;;16.00;1.40;;;17.61;100.00;94968.63;648150;212;31675;-76
2022/06/27 01:05:56;;;;;;;2.97;2.17;;;16.20;1.40;;;17.53;100.00;94971.49;647628;216;31539;-77
2022/06/27 01:08:44;;;;;;;3.42;2.10;;;16.00;1.40;;;17.54;100.00;94985.84;618784;226;31891;-77
2022/06/27 01:11:27;;;;;;;2.60;2.40;;;16.00;1.40;;;17.46;100.00;94985.51;647510;216;31601;-76
2022/06/27 01:14:12;;;;;;;2.50;2.12;;;16.10;1.40;;;17.57;100.00;94983.13;646711;216;31525;-77
2022/06/27 01:16:54;;;;;;;2.37;1.95;;;16.00;1.40;;;17.37;100.00;94980.92;646476;213;31612;-76
2022/06/27 01:19:39;;;;;;;2.35;2.15;;;15.90;1.40;;;17.20;100.00;94981.45;620138;226;42598;-77
2022/06/27 01:22:20;;;;;;;2.70;1.98;;;15.70;1.40;;;17.15;100.00;94996.75;619525;226;31859;-77
2022/06/27 01:25:04;;;;;;;2.73;2.17;;;15.70;1.40;;;17.12;100.00;94987.09;647168;216;32102;-78
2022/06/27 01:27:48;;;;;;;3.08;2.08;;;15.70;1.40;;;17.21;100.00;94991.89;646788;216;31554;-76
2022/06/27 01:30:30;;;;;;;2.83;2.05;;;15.80;1.40;;;17.18;100.00;94996.22;621050;222;31970;-76
2022/06/27 01:36:41;;;;;;;2.37;2.17;;;15.70;1.40;;;17.14;100.00;94994.08;647018;212;31604;-76
2022/06/27 01:38:36;;;;;;;2.58;2.20;;;15.60;1.40;;;17.15;100.00;94997.33;647291;216;31776;-76
2022/06/27 01:41:23;;;;;;;2.28;1.95;;;15.60;1.40;;;17.05;100.00;94986.50;618691;226;32121;-76
2022/06/27 01:44:11;;;;;;;2.30;1.70;;;15.50;1.40;;;17.07;100.00;94990.41;647458;216;31831;-76
2022/06/27 01:47:05;;;;;;;3.28;2.87;;;15.50;1.40;;;17.03;100.00;94997.06;646865;216;32116;-76
2022/06/27 01:49:46;;;;;;;2.83;2.53;;;15.50;1.40;;;16.96;100.00;95001.46;647298;216;32885;-76
2022/06/27 01:52:28;;;;;;;2.42;1.92;;;15.50;1.40;;;17.01;100.00;95000.02;644780;212;31782;-77
2022/06/27 01:55:10;;;;;;;2.53;2.00;;;15.60;1.40;;;17.20;100.00;95003.08;647435;216;31662;-76
2022/06/27 01:57:56;;;;;;;2.20;1.62;;;15.60;1.40;;;17.13;100.00;94997.25;645377;216;32060;-76
2022/06/27 02:00:44;;;;;;;2.60;2.12;;;15.60;1.40;;;17.18;100.00;95005.13;647122;216;31634;-76
2022/06/27 02:03:26;;;;;;;2.50;2.20;;;15.60;1.40;;;17.11;100.00;95010.64;646309;212;34635;-76
2022/06/27 02:06:14;;;;;;;2.70;1.80;;;15.60;1.40;;;17.10;100.00;95009.34;646878;216;31586;-75
2022/06/27 02:08:58;;;;;;;2.50;2.03;;;15.60;1.40;;;17.05;100.00;95021.72;645969;216;31576;-76
2022/06/27 02:11:46;;;;;;;2.80;2.33;;;15.60;1.40;;;16.97;100.00;95008.65;647566;216;31547;-76
2022/06/27 02:14:30;;;;;;;3.67;2.30;;;15.60;1.40;;;17.03;100.00;95019.70;646553;216;31571;-76
2022/06/27 02:17:13;;;;;;;2.97;2.60;;;15.50;1.40;;;16.96;100.00;95079.93;647255;216;31562;-76
2022/06/27 02:20:01;;;;;;;2.60;2.10;;;15.60;1.40;;;16.96;100.00;95148.05;645761;216;31908;-77
2022/06/27 02:22:43;;;;;;;2.28;1.67;;;15.90;1.40;;;17.92;100.00;95154.04;647112;216;31582;-75
2022/06/27 02:25:30;;;;;;;2.90;2.60;;;17.10;1.40;;;18.54;100.00;95135.34;647060;216;31709;-76
2022/06/27 02:28:12;;;;;;;2.72;2.28;;;17.70;1.40;;;18.65;100.00;95123.56;619678;222;31864;-76
2022/06/27 02:31:05;;;;;;;2.80;2.30;;;17.60;1.40;;;18.71;100.00;95133.27;648546;216;31549;-76
2022/06/27 02:35:56;;;;;;;2.50;2.20;;;17.40;1.40;;;18.57;100.00;95129.03;647158;216;31864;-76
2022/06/27 02:38:44;;;;;;;2.50;2.20;;;17.30;1.40;;;18.48;100.00;95122.19;647492;216;31576;-76
2022/06/27 02:41:33;;;;;;;2.70;2.20;;;17.20;1.40;;;18.39;100.00;95128.87;646991;212;31545;-76
2022/06/27 02:44:20;;;;;;;3.00;2.70;;;17.00;1.40;;;18.38;100.00;95107.83;647668;216;31562;-76
2022/06/27 02:47:08;;;;;;;2.90;2.60;;;17.00;1.40;;;18.35;100.00;95128.80;647487;216;31627;-76
2022/06/27 02:49:53;;;;;;;2.90;2.60;;;17.10;1.40;;;18.46;100.00;95154.19;647131;216;31555;-76
2022/06/27 02:52:35;;;;;;;2.62;2.42;;;17.30;1.40;;;18.66;100.00;95143.01;642192;216;31702;-77
2022/06/27 02:55:17;;;;;;;2.58;2.05;;;17.60;1.40;;;18.88;100.00;95156.44;647717;212;31520;-76
2022/06/27 02:58:02;;;;;;;2.83;2.20;;;17.80;1.40;;;18.90;100.00;95154.05;647037;213;31578;-76
2022/06/27 03:00:46;;;;;;;3.83;3.53;;;17.90;1.40;;;18.99;100.00;95162.80;646694;216;42234;-76
2022/06/27 03:03:33;;;;;;;2.50;2.30;;;17.90;1.40;;;18.92;100.00;95163.64;620718;226;32553;-76
2022/06/27 03:06:15;;;;;;;2.40;2.20;;;17.80;1.40;;;18.88;100.00;95166.87;620064;225;31855;-77
2022/06/27 03:11:37;;;;;;;2.92;2.10;;;17.60;1.40;;;18.86;100.00;95161.06;619027;222;31884;-76
2022/06/27 03:14:18;;;;;;;2.50;2.30;;;17.50;1.40;;;18.69;100.00;95164.30;646482;216;32065;-76
2022/06/27 03:19:42;;;;;;;2.58;2.37;;;17.10;1.40;;;18.59;100.00;95166.91;646455;216;31583;-76
2022/06/27 03:22:24;;;;;;;2.80;2.20;;;17.10;1.40;;;18.48;100.00;95165.84;645869;216;31544;-75
2022/06/27 03:25:12;;;;;;;3.10;2.80;;;17.00;1.40;;;18.31;100.00;95164.51;646800;212;31604;-76
2022/06/27 03:27:54;;;;;;;2.80;2.28;;;17.00;1.40;;;18.31;100.00;95173.81;647248;216;31532;-75
2022/06/27 03:30:41;;;;;;;2.67;2.47;;;17.00;1.40;;;18.28;100.00;95173.33;647765;216;31683;-76
2022/06/27 03:35:57;;;;;;;3.30;3.00;;;16.90;1.40;;;18.04;100.00;95182.77;647842;213;31568;-76
2022/06/27 03:38:42;;;;;;;2.30;2.00;;;16.70;1.40;;;18.08;100.00;95178.20;645891;212;31705;-76
2022/06/27 03:41:24;;;;;;;2.60;2.40;;;16.70;1.40;;;18.12;100.00;95180.83;647495;216;31569;-76
2022/06/27 03:44:08;;;;;;;2.72;2.53;;;16.70;1.40;;;17.99;100.00;95186.83;646332;216;31528;-76
2022/06/27 03:46:53;;;;;;;2.30;2.00;;;16.60;1.40;;;17.93;100.00;95176.75;647566;216;31573;-78
2022/06/27 03:52:28;;;;;;;3.23;2.93;;;16.40;1.40;;;17.84;100.00;95178.38;645099;212;31705;-76
2022/06/27 03:55:10;;;;;;;2.60;2.30;;;16.30;1.40;;;17.85;100.00;95175.94;647430;212;31567;-76
2022/06/27 03:57:53;;;;;;;2.78;2.58;;;16.40;1.40;;;17.79;100.00;95171.06;618894;222;31854;-76
2022/06/27 04:00:38;;;;;;;2.60;2.40;;;16.40;1.40;;;17.85;100.00;95169.95;646293;216;31562;-76
2022/06/27 04:03:19;;;;;;;2.50;2.30;;;16.40;1.40;;;17.86;100.00;95164.87;647403;212;32082;-76
2022/06/27 04:06:04;;;;;;;2.60;2.20;;;16.50;1.40;;;17.88;100.00;95162.52;647690;212;31563;-76
2022/06/27 04:11:20;;;;;;;4.30;2.25;;;16.70;1.40;;;18.01;100.00;95163.70;619602;222;32570;-76
2022/06/27 04:14:02;;;;;;;3.20;2.90;;;16.50;1.40;;;17.84;100.00;95177.23;647067;216;31552;-76
2022/06/27 04:16:43;;;;;;;3.28;2.97;;;16.40;1.40;;;17.71;100.00;95187.15;646614;216;32855;-76
2022/06/27 04:19:25;;;;;;;2.53;2.33;;;16.30;1.40;;;17.73;100.00;95199.61;646561;212;32160;-76
2022/06/27 04:22:08;;;;;;;3.97;2.60;;;16.60;1.40;;;17.82;100.00;95195.00;647038;216;31650;-76
2022/06/27 04:24:49;;;;;;;3.00;2.70;;;16.70;1.40;;;17.96;100.00;95194.61;646009;212;31656;-76
2022/06/27 04:27:30;;;;;;;3.15;2.40;;;16.80;1.40;;;18.21;100.00;95201.44;647354;212;31532;-76
2022/06/27 04:30:16;;;;;;;2.90;2.60;;;16.90;1.40;;;18.28;100.00;95202.06;646860;212;31515;-76
2022/06/27 04:32:57;;;;;;;6.20;2.08;;;17.00;1.40;;;18.31;100.00;95200.33;647041;216;32165;-76
2022/06/27 04:35:50;;;;;;;2.72;2.42;;;16.90;1.40;;;18.31;100.00;95203.17;646494;212;32419;-76
2022/06/27 04:38:32;;;;;;;2.92;2.62;;;17.00;1.40;;;18.35;100.00;95210.03;646143;216;31541;-77
2022/06/27 04:41:14;;;;;;;2.80;2.60;;;17.00;1.40;;;18.40;100.00;95206.56;645967;212;31554;-77
2022/06/27 04:43:56;;;;;;;3.65;2.20;;;17.00;1.40;;;18.51;100.00;95202.36;647169;216;31531;-76
2022/06/27 04:46:38;;;;;;;3.20;2.90;;;17.00;1.40;;;18.60;100.00;95202.33;646999;212;42211;-77
2022/06/27 04:49:20;;;;;;;2.72;2.45;;;17.10;1.40;;;18.62;100.00;95204.63;647484;216;31542;-77
2022/06/27 04:52:01;;;;;;;3.12;2.83;;;17.20;1.40;;;18.74;100.00;95200.69;646339;216;31569;-76
2022/06/27 04:54:43;;;;;;;2.60;2.28;;;17.40;1.40;;;18.84;100.00;95201.05;620393;226;31865;-77
2022/06/27 04:57:25;;;;;;;2.60;2.40;;;17.40;1.40;;;18.91;100.00;95202.34;646577;216;31972;-75
2022/06/27 05:00:08;;;;;;;4.03;3.37;;;17.50;1.40;;;18.93;100.00;95209.00;646694;212;32498;-75
2022/06/27 05:02:49;;;;;;;3.00;2.70;;;17.70;1.40;;;18.95;100.00;95214.27;646791;216;31630;-76
2022/06/27 05:05:31;;;;;;;3.10;2.90;;;17.80;1.40;;;19.10;100.00;95209.82;646700;212;31586;-77
2022/06/27 05:08:20;;;;;;;3.08;2.78;;;17.90;1.40;;;19.18;100.00;95213.92;646878;216;31538;-76
2022/06/27 05:11:02;;;;;;;3.58;3.28;;;18.00;1.40;;;18.89;100.00;95208.16;646001;216;33434;-76
2022/06/27 05:13:50;;;;;;;2.60;2.28;;;17.20;1.40;;;18.56;100.00;95214.37;647521;216;31559;-76
2022/06/27 05:19:18;;;;;;;4.33;2.73;;;17.00;1.40;;;18.58;100.00;95218.08;646525;216;34666;-76
2022/06/27 05:22:07;;;;;;;2.85;2.65;;;17.10;1.40;;;18.61;100.00;95220.45;618820;226;31949;-75
2022/06/27 05:24:54;;;;;;;8.50;2.90;;;17.40;1.40;;;18.66;100.00;95208.92;646707;212;43025;-76
2022/06/27 05:27:35;;;;;;;3.42;2.90;;;17.40;1.40;;;18.71;100.00;95201.36;645661;212;32807;-76
2022/06/27 05:30:20;;;;;;;3.28;2.97;;;17.50;1.40;;;18.83;100.00;95195.73;646385;216;31875;-75
2022/06/27 05:33:02;;;;;;;3.60;3.28;;;17.60;1.40;;;18.84;100.00;95206.95;646747;216;31987;-75
2022/06/27 05:35:57;;;;;;;4.53;2.65;;;17.60;1.40;;;18.76;100.00;95199.61;642517;216;31574;-76
2022/06/27 05:38:45;;;;;;;3.97;2.87;;;17.90;1.40;;;18.95;100.00;95203.44;646481;216;31560;-75
2022/06/27 05:41:28;;;;;;;3.00;2.70;;;18.10;1.40;;;18.92;100.00;95210.25;647055;212;31511;-75
2022/06/27 05:45:24;;;;;;;3.30;2.62;;;18.60;1.40;;;19.12;100.00;95215.95;647062;216;31554;-76
2022/06/27 05:48:10;;;;;;;3.30;2.83;;;18.70;1.40;;;19.10;100.00;95212.20;647527;212;31757;-75
2022/06/27 05:50:53;;;;;;;3.37;2.80;;;18.80;1.40;;;19.17;100.00;95227.63;646154;212;31545;-75
2022/06/27 05:53:41;;;;;;;16.10;3.20;;;19.00;1.40;;;19.24;100.00;95220.91;636514;216;31695;-75
2022/06/27 05:56:29;;;;;;;3.20;2.90;;;19.00;1.40;;;19.33;100.00;95212.15;647055;216;31991;-76
2022/06/27 05:59:19;;;;;;;2.92;2.65;;;19.10;1.40;;;19.43;100.00;95208.20;645063;212;31659;-76
2022/06/27 06:02:07;;;;;;;3.30;3.00;;;19.10;1.40;;;19.61;100.00;95211.80;643159;216;31567;-76
2022/06/27 06:04:49;;;;;;;3.27;2.97;;;19.10;1.40;;;19.75;100.00;95217.67;646365;212;31584;-75
2022/06/27 06:07:30;;;;;;;3.42;2.50;;;19.10;1.40;;;19.95;100.00;95216.05;647221;212;31577;-75
2022/06/27 06:10:12;;;;;;;3.72;3.33;;;19.20;1.40;;;20.05;100.00;95217.20;646442;216;42273;-75
2022/06/27 06:12:53;;;;;;;3.60;3.30;;;19.20;1.40;;;20.27;100.00;95215.95;647109;216;31545;-76
2022/06/27 06:15:38;;;;;;;2.80;2.60;;;19.50;1.40;;;20.49;100.00;95208.84;646100;216;31546;-76
2022/06/27 06:18:17;;;;;;;3.30;2.90;;;19.50;1.40;;;20.51;100.00;95203.48;647295;216;32304;-75
2022/06/27 06:20:58;;;;;;;3.00;2.80;;;19.40;1.40;;;20.53;100.00;95207.23;618316;226;31951;-76
2022/06/27 06:23:40;;;;;;;3.50;3.10;;;19.50;1.40;;;20.76;100.00;95211.79;646920;216;31696;-76
2022/06/27 06:26:22;;;;;;;3.20;2.90;;;19.80;1.40;;;20.98;100.00;95215.94;648220;212;31592;-76
2022/06/27 06:29:14;;;;;;;5.10;3.40;;;20.10;1.40;;;20.92;100.00;95213.98;646771;212;31604;-75
2022/06/27 06:31:48;;;;;;;3.15;2.85;;;19.90;1.40;;;21.13;100.00;95209.36;646919;212;31741;-75
2022/06/27 06:35:57;;;;;;;3.70;3.40;;;20.10;1.40;;;21.20;100.00;95210.41;648328;216;31745;-76
2022/06/27 06:38:44;;;;;;;3.30;3.00;;;20.10;1.40;;;21.32;100.00;95202.45;619330;222;31916;-75
2022/06/27 06:41:28;;;;;;;3.70;3.40;;;20.30;1.40;;;21.49;100.00;95198.56;646724;216;31555;-75
2022/06/27 06:44:11;;;;;;;3.60;3.30;;;20.40;1.40;;;21.55;100.00;95188.45;647389;212;31577;-75
2022/06/27 06:46:54;;;;;;;3.50;3.20;;;20.50;1.40;;;21.84;100.00;95190.50;647033;212;31744;-76
2022/06/27 06:49:40;;;;;;;4.23;3.93;;;20.50;1.40;;;22.00;100.00;95183.63;647847;216;31572;-76
2022/06/27 06:52:21;;;;;;;3.20;2.90;;;20.80;1.40;;;22.09;100.00;95191.84;647076;212;31579;-76
2022/06/27 06:55:03;;;;;;;3.47;3.17;;;20.90;1.40;;;22.28;100.00;95194.44;646122;216;31572;-76
2022/06/27 06:57:45;;;;;;;3.70;3.30;;;21.00;1.40;;;22.35;100.00;95196.86;619474;226;32037;-76
2022/06/27 07:03:07;;;;;;;3.70;3.40;;;21.00;1.40;;;22.31;100.00;95190.61;647710;212;31584;-75
2022/06/27 07:05:51;;;;;;;4.87;4.57;;;21.00;1.40;;;22.50;100.00;95184.30;647143;212;31781;-75
2022/06/27 07:08:33;;;;;;;3.30;3.00;;;21.40;1.40;;;22.60;100.00;95182.66;646679;216;31641;-75
2022/06/27 07:11:15;;;;;;;5.10;3.70;;;21.50;1.40;;;22.65;100.00;95186.83;647390;212;31607;-75
2022/06/27 07:13:57;;;;;;;4.28;3.97;;;21.50;1.40;;;22.86;100.00;95185.69;646427;216;31524;-76
2022/06/27 07:16:38;;;;;;;5.90;3.60;;;21.70;1.40;;;22.97;100.00;95186.98;646947;212;31546;-75
2022/06/27 07:19:26;;;;;;;3.95;3.65;;;21.80;1.40;;;23.09;100.00;95185.13;647398;216;34149;-76
2022/06/27 07:22:14;;;;;;;3.87;3.58;;;21.80;1.40;;;23.36;100.00;95187.08;618426;226;31958;-75
2022/06/27 07:25:04;;;;;;;4.32;4.03;;;21.90;1.40;;;23.54;100.00;95184.56;646781;212;31605;-76
2022/06/27 07:27:52;;;;;;;5.03;4.72;;;21.90;1.40;;;23.59;100.00;95182.01;620420;225;31896;-76
2022/06/27 07:30:36;;;;;;;4.40;4.10;;;22.00;1.40;;;23.59;100.00;95184.04;618049;222;31903;-76
2022/06/27 07:35:56;;;;;;;3.72;3.42;;;22.30;1.40;;;23.70;100.00;95184.50;647722;216;31697;-76
2022/06/27 07:38:38;;;;;;;4.07;3.78;;;22.40;1.40;;;23.90;100.00;95185.23;647108;216;31561;-76
2022/06/27 07:41:20;;;;;;;5.20;4.70;;;22.30;1.40;;;24.07;100.00;95186.30;647217;216;42177;-76
2022/06/27 07:44:03;;;;;;;3.87;3.50;;;22.50;1.40;;;24.25;100.00;95188.92;647916;216;42169;-76
2022/06/27 07:46:50;;;;;;;5.35;4.95;;;22.80;1.40;;;24.30;100.00;95188.41;646394;216;42175;-76
2022/06/27 07:49:32;;;;;;;5.30;3.75;;;23.00;1.40;;;24.14;100.00;95186.72;648229;212;31546;-76
2022/06/27 07:52:16;;;;;;;4.80;4.40;;;22.90;1.40;;;24.26;100.00;95177.65;646896;216;31544;-77
2022/06/27 07:54:59;;;;;;;5.00;4.50;;;22.90;1.40;;;24.39;100.00;95178.86;647128;216;33567;-76
2022/06/27 07:57:46;;;;;;;4.55;4.15;;;23.00;1.40;;;24.53;100.00;95183.16;619046;226;31900;-75
2022/06/27 08:00:22;;;;;;;4.37;4.07;;;23.20;1.40;;;24.73;100.00;95182.47;646866;212;34898;-76
2022/06/27 08:06:05;;;;;;;4.70;4.30;;;23.30;1.40;;;24.92;100.00;95184.17;646881;216;31585;-75
2022/06/27 08:08:46;;;;;;;4.20;3.90;;;23.40;1.40;;;25.08;100.00;95186.33;646607;216;42816;-76
2022/06/27 08:11:28;;;;;;;5.40;4.10;;;23.60;1.40;;;25.21;100.00;95183.48;620058;226;42553;-76
2022/06/27 08:14:12;;;;;;;4.18;3.87;;;23.90;1.40;;;24.94;100.00;95187.61;646348;212;31587;-75
2022/06/27 08:16:57;;;;;;;4.55;4.25;;;23.60;1.40;;;25.25;100.00;95181.22;618969;222;33277;-76
2022/06/27 08:19:38;;;;;;;4.20;3.90;;;23.90;1.40;;;25.26;100.00;95181.59;648384;212;31844;-75
2022/06/27 08:22:25;;;;;;;4.60;4.30;;;23.90;1.40;;;25.27;100.00;95176.63;646676;216;31609;-75
2022/06/27 08:25:02;;;;;;;4.90;4.40;;;23.90;1.40;;;25.40;100.00;95175.09;647284;212;31611;-75
2022/06/27 08:27:44;;;;;;;4.82;4.53;;;24.10;1.40;;;25.46;100.00;95181.50;647178;216;31573;-75
2022/06/27 08:30:27;;;;;;;4.75;4.45;;;24.00;1.40;;;25.68;100.00;95181.63;645931;216;31896;-76
2022/06/27 08:35:53;;;;;;;4.85;4.45;;;24.80;1.40;;;26.34;100.00;95180.03;647069;216;31542;-76
2022/06/27 08:38:42;;;;;;;4.45;4.15;;;24.60;1.40;;;26.47;100.00;95177.87;648176;212;31539;-76
2022/06/27 08:41:30;;;;;;;5.20;4.80;;;24.90;1.40;;;26.48;100.00;95179.64;647008;216;31686;-77
2022/06/27 08:44:12;;;;;;;5.28;4.87;;;25.10;1.40;;;26.83;100.00;95182.06;646362;216;31571;-76
2022/06/27 08:46:54;;;;;;;4.78;4.40;;;25.60;1.40;;;27.03;100.00;95182.13;619427;222;31895;-76
2022/06/27 08:49:37;;;;;;;4.80;4.40;;;25.30;1.40;;;27.13;99.08;95183.38;647502;216;31651;-76
2022/06/27 08:52:20;;;;;;;5.03;4.62;;;25.50;1.40;;;27.08;97.35;95182.44;643219;216;31747;-76
2022/06/27 08:55:10;;;;;;;4.82;4.43;;;25.50;1.40;;;27.23;98.67;95183.03;648098;216;31805;-75
2022/06/27 08:57:52;;;;;;;4.90;4.50;;;25.70;1.40;;;27.69;98.81;95179.91;647636;214;31643;-76
2022/06/27 09:00:36;;;;;;;4.75;4.45;;;26.00;1.40;;;28.07;99.96;95181.59;646735;212;31762;-75
2022/06/27 09:03:19;;;;;;;5.80;3.92;;;26.40;1.40;;;28.33;95.02;95182.86;645378;214;31610;-76
2022/06/27 09:06:04;;;;;;;5.25;4.75;;;27.10;1.40;;;28.53;92.97;95182.36;619329;222;31896;-75
2022/06/27 09:08:55;;;;;;;5.30;4.80;;;26.90;1.40;;;28.40;90.15;95183.02;619846;222;32644;-75
2022/06/27 09:11:42;;;;;;;5.37;4.97;;;26.70;1.40;;;28.25;90.88;95177.41;647296;216;31992;-76
2022/06/27 09:14:37;;;;;;;6.00;4.85;;;26.80;1.40;;;28.51;88.77;95177.55;642090;217;31673;-76
2022/06/27 09:17:18;;;;;;;5.90;5.40;;;26.80;1.40;;;28.71;87.13;95177.00;645931;216;42006;-76
2022/06/27 09:20:00;;;;;;;5.82;5.32;;;26.90;1.40;;;28.69;86.90;95172.23;647071;216;31629;-75
2022/06/27 09:22:45;;;;;;;4.80;4.50;;;27.20;1.40;;;29.05;86.22;95166.58;646034;216;31705;-76
2022/06/27 09:25:24;;;;;;;6.10;5.70;;;27.60;1.40;;;29.61;82.62;95161.62;619588;226;32150;-76
2022/06/27 09:28:06;;;;;;;4.43;4.03;;;27.90;1.40;;;29.81;82.56;95154.80;647096;212;31546;-75
2022/06/27 09:30:48;;;;;;;5.12;4.75;;;27.90;1.40;;;31.21;78.93;95150.98;619917;222;31901;-75
2022/06/27 09:35:51;;;;;;;5.80;5.40;;;33.00;1.40;;;33.08;66.54;95152.00;647282;212;42324;-75
2022/06/27 09:38:33;;;;;;;5.10;4.70;;;33.80;1.40;;;33.58;66.57;95148.27;646783;212;31713;-76
2022/06/27 09:41:16;;;;;;;5.60;5.30;;;34.10;1.40;;;34.46;67.77;95145.48;646102;216;42352;-76
2022/06/27 09:44:02;;;;;;;6.25;5.85;;;33.60;1.40;;;33.86;65.60;95146.86;619815;226;32077;-76
2022/06/27 09:46:43;;;;;;;4.93;4.62;;;34.40;1.40;;;35.94;60.58;95137.67;646968;216;31555;-76
2022/06/27 09:49:26;;;;;;;5.55;5.25;;;35.20;1.40;;;36.72;59.69;95142.67;645836;212;31621;-76
2022/06/27 09:52:07;;;;;;;6.20;5.70;;;35.00;1.40;;;36.22;60.03;95141.09;645384;212;31620;-76
2022/06/27 09:54:49;;;;;;;5.82;5.45;;;35.20;1.40;;;35.82;60.61;95139.84;648080;216;32136;-76
2022/06/27 09:57:30;;;;;;;7.32;6.82;;;34.30;1.40;;;36.98;60.05;95138.33;647407;216;31688;-76
2022/06/27 10:00:15;;;;;;;2.53;1.85;;;34.90;1.40;;;37.96;55.82;95139.70;647112;212;31593;-76
2022/06/27 10:02:57;;;;;;;2.30;2.10;;;35.40;1.40;;;37.32;55.38;95136.60;618600;226;32070;-77
2022/06/27 10:05:43;;;;;;;2.50;2.30;;;34.80;1.40;;;38.21;56.22;95141.36;646471;216;31557;-76
2022/06/27 10:08:31;;;;;;;4.25;2.62;;;35.60;1.40;;;39.27;50.32;95135.72;647366;216;31761;-76
2022/06/27 10:11:17;;;;;;;2.40;2.12;;;35.60;1.40;;;37.32;51.87;95136.28;645974;216;32224;-76
2022/06/27 10:14:11;;;;;;;4.27;2.50;;;35.30;1.40;;;38.06;48.63;95133.59;642766;216;31582;-76
2022/06/27 10:16:59;;;;;;;2.20;1.90;;;34.60;1.40;;;39.61;50.61;95129.55;646583;216;32180;-76
2022/06/27 10:22:30;;;;;;;2.62;2.30;;;36.10;1.40;;;39.36;47.54;95131.17;642656;216;31972;-76
2022/06/27 10:25:34;;;;;;;2.10;1.90;;;34.40;1.40;;;38.58;48.02;95140.11;646930;216;31580;-76
2022/06/27 10:28:17;;;;;;;2.20;2.00;;;34.10;1.40;;;39.72;46.91;95134.20;647787;216;31525;-77
2022/06/27 10:30:58;;;;;;;2.35;1.85;;;35.30;1.40;;;37.28;51.68;95137.65;647405;212;31674;-76
2022/06/27 10:36:10;;;;;;;2.28;2.08;;;35.10;1.40;;;40.29;42.60;95137.37;619088;225;32017;-77
2022/06/27 10:38:57;;;;;;;3.37;1.90;;;36.40;1.40;;;40.17;45.31;95136.98;620057;222;42520;-76
2022/06/27 10:41:37;;;;;;;2.20;2.00;;;35.90;1.40;;;38.42;44.40;95142.20;648077;216;31554;-78
2022/06/27 10:44:30;;;;;;;1.90;1.70;;;35.20;1.40;;;39.61;43.93;95134.58;619488;226;32083;-77
2022/06/27 10:47:10;;;;;;;1.90;1.70;;;35.60;1.40;;;40.41;46.89;95140.72;647159;212;31531;-78
2022/06/27 10:50:10;;;;;;;2.37;1.70;;;35.30;1.40;;;40.76;40.63;95137.96;621081;222;31890;-77
2022/06/27 10:55:37;;;;;;;2.10;1.90;;;34.90;1.40;;;38.78;45.56;95144.52;619468;222;42557;-77
2022/06/27 10:58:22;;;;;;;2.50;1.80;;;34.90;1.40;;;41.88;41.71;95133.41;619554;226;31879;-78
2022/06/27 11:01:13;;;;;;;2.07;1.60;;;35.30;1.40;;;39.02;44.71;95142.29;619699;222;32436;-79
2022/06/27 11:03:58;;;;;;;2.00;1.80;;;34.30;1.40;;;40.42;41.84;95139.11;647457;216;31610;-76
2022/06/27 11:06:39;;;;;;;2.20;1.50;;;35.00;1.40;;;40.79;41.73;95137.31;618607;226;31840;-78
2022/06/27 11:09:37;;;;;;;2.00;1.80;;;34.90;1.40;;;41.23;40.96;95136.31;646965;213;31608;-78
2022/06/27 11:12:19;;;;;;;2.63;1.77;;;34.90;1.40;;;39.98;40.38;95141.03;646651;212;31529;-77
2022/06/27 11:15:01;;;;;;;2.10;1.80;;;34.90;1.40;;;40.85;39.40;95139.48;646955;212;31591;-77
2022/06/27 11:17:42;;;;;;;2.00;1.80;;;34.80;1.40;;;40.01;39.56;95143.88;620717;225;31888;-77
2022/06/27 11:20:25;;;;;;;2.20;1.90;;;34.40;1.40;;;38.04;46.37;95154.84;648803;212;31584;-78
2022/06/27 11:23:06;;;;;;;2.30;1.80;;;33.90;1.40;;;39.80;44.56;95146.16;646681;212;31708;-77
2022/06/27 11:25:47;;;;;;;3.00;1.53;;;34.30;1.40;;;41.71;42.29;95138.21;646952;212;31619;-77
2022/06/27 11:35:57;;;;;;;2.65;2.10;;;35.00;1.40;;;40.89;39.46;95156.98;647888;216;32129;-77
2022/06/27 11:38:46;;;;;;;2.20;1.90;;;34.70;1.40;;;42.27;38.76;95157.76;645782;212;31796;-76
2022/06/27 11:41:30;;;;;;;2.30;2.10;;;34.20;1.40;;;42.69;37.66;95159.84;619175;222;32387;-78
2022/06/27 11:44:12;;;;;;;3.60;1.60;;;35.10;1.40;;;41.64;39.33;95158.14;619803;222;33098;-78
2022/06/27 11:47:04;;;;;;;2.37;1.97;;;35.00;1.40;;;41.83;40.99;95158.69;647623;215;42165;-77
2022/06/27 11:49:46;;;;;;;2.27;2.07;;;34.80;1.40;;;40.60;39.53;95160.42;642594;215;31787;-77
2022/06/27 11:52:37;;;;;;;2.00;1.80;;;34.40;1.40;;;41.31;41.91;95161.93;643184;216;31845;-76
2022/06/27 11:55:19;;;;;;;2.67;2.47;;;35.30;1.40;;;42.86;37.93;95165.66;646550;212;32346;-77
2022/06/27 11:58:01;;;;;;;3.03;1.90;;;35.30;1.40;;;42.25;36.93;95165.01;648052;216;31564;-76
2022/06/27 12:00:43;;;;;;;4.20;2.10;;;35.00;1.40;;;42.25;37.17;95174.25;647215;216;31530;-77
2022/06/27 12:03:25;;;;;;;1.73;1.50;;;35.40;1.40;;;40.89;37.69;95174.09;647131;216;31522;-77
2022/06/27 12:06:15;;;;;;;2.72;2.05;;;34.20;1.40;;;41.14;38.07;95176.87;619756;226;32191;-77
2022/06/27 12:09:01;;;;;;;4.47;1.77;;;34.20;1.40;;;42.03;37.39;95176.95;646524;216;31611;-77
2022/06/27 12:11:50;;;;;;;2.40;1.70;;;34.70;1.40;;;41.97;38.46;95180.09;646561;216;31584;-76
2022/06/27 12:14:32;;;;;;;3.33;2.13;;;34.70;1.40;;;40.17;39.77;95185.03;646368;212;31613;-76
2022/06/27 12:17:16;;;;;;;3.30;2.27;;;34.50;1.40;;;41.74;38.87;95184.26;618492;226;31914;-77
2022/06/27 12:20:01;;;;;;;2.30;2.00;;;34.50;1.40;;;42.80;37.34;95182.50;619385;226;32023;-77
2022/06/27 12:25:17;;;;;;;2.17;1.90;;;34.50;1.40;;;40.40;40.69;95193.22;646190;212;31652;-78
2022/06/27 12:28:05;;;;;;;2.60;2.20;;;33.70;1.40;;;39.48;41.16;95204.47;616494;226;32397;-77